Time;durP1;ratioP1;P1;durP2;ratioP2;P2;SDS_P1;SDS_P2;PMS_P1;PMS_P2;Temp;Humidity;BMP_temperature;BMP_pressure;BME280_temperature;BME280_humidity;BME280_pressure;Samples;Min_cycle;Max_cycle;Signal;HPM_P1;HPM_P2
2023/04/14 00:01:39;;;;;;;10.45;3.60;;;8.10;99.90;;;7.15;100.00;100535.22;4135438;28;20113;-80
2023/04/14 00:03:40;;;;;;;9.73;2.90;;;8.00;99.90;;;7.13;100.00;100538.97;4131748;28;20487;-79
2023/04/14 00:05:41;;;;;;;11.98;2.58;;;8.00;99.90;;;7.12;100.00;100532.06;4136102;28;20090;-80
2023/04/14 00:07:41;;;;;;;7.85;2.30;;;8.00;99.90;;;7.16;100.00;100536.06;4135551;28;20038;-80
2023/04/14 00:09:43;;;;;;;11.80;2.60;;;8.00;99.90;;;7.15;100.00;100529.16;4129047;28;20034;-81
2023/04/14 00:11:43;;;;;;;9.00;2.72;;;8.00;99.90;;;7.17;100.00;100528.03;4135285;28;20030;-80
2023/04/14 00:13:44;;;;;;;15.80;2.85;;;8.10;99.90;;;7.20;100.00;100526.94;4120827;28;20030;-80
2023/04/14 00:15:45;;;;;;;5.95;2.30;;;8.10;99.90;;;7.18;100.00;100515.75;4120441;28;20031;-80
2023/04/14 00:17:46;;;;;;;12.52;2.97;;;8.10;99.90;;;7.19;100.00;100520.03;4127460;28;20034;-79
2023/04/14 00:19:47;;;;;;;7.78;2.97;;;8.10;99.90;;;7.23;100.00;100510.91;4131609;28;20064;-79
2023/04/14 00:21:48;;;;;;;16.27;2.58;;;8.10;99.90;;;7.26;100.00;100520.31;4134956;28;20030;-80
2023/04/14 00:23:49;;;;;;;8.43;2.33;;;8.10;99.90;;;7.21;100.00;100500.56;4123427;28;20026;-80
2023/04/14 00:25:50;;;;;;;13.13;2.83;;;8.10;99.90;;;7.25;100.00;100501.13;4127939;28;20023;-80
2023/04/14 00:27:51;;;;;;;9.40;2.50;;;8.10;99.90;;;7.23;100.00;100495.16;4135110;28;20089;-80
2023/04/14 00:29:52;;;;;;;7.82;2.15;;;8.10;99.90;;;7.28;100.00;100492.13;4132721;28;20514;-80
2023/04/14 00:31:53;;;;;;;10.95;2.47;;;8.20;99.90;;;7.24;100.00;100491.59;4118996;28;20387;-80
2023/04/14 00:33:53;;;;;;;12.07;2.58;;;8.20;99.90;;;7.28;100.00;100495.59;4135047;28;20065;-80
2023/04/14 00:35:55;;;;;;;10.45;2.72;;;8.20;99.90;;;7.23;100.00;100482.06;4136190;28;20486;-80
2023/04/14 00:37:57;;;;;;;11.40;2.22;;;8.20;99.90;;;7.27;100.00;100474.75;4134881;28;20030;-80
2023/04/14 00:39:58;;;;;;;15.20;4.30;;;8.20;99.90;;;7.25;100.00;100464.41;4135063;28;20042;-80
2023/04/14 00:42:03;;;;;;;12.77;2.53;;;8.20;99.90;;;7.28;100.00;100468.53;4136019;28;20511;-80
2023/04/14 00:44:04;;;;;;;9.75;2.95;;;8.20;99.90;;;7.31;100.00;100469.09;4123341;28;20045;-80
2023/04/14 00:46:05;;;;;;;11.63;3.28;;;8.20;99.90;;;7.31;100.00;100466.47;4119949;28;20035;-80
2023/04/14 00:48:07;;;;;;;8.73;2.38;;;8.20;99.90;;;7.35;100.00;100470.44;4123957;28;20528;-81
2023/04/14 00:50:10;;;;;;;13.38;2.65;;;8.20;99.90;;;7.41;100.00;100459.38;4126815;28;20030;-80
2023/04/14 00:52:11;;;;;;;13.82;4.35;;;8.20;99.90;;;7.33;100.00;100448.75;4130484;28;20026;-80
2023/04/14 00:54:16;;;;;;;12.43;3.40;;;8.30;99.90;;;7.40;100.00;100449.03;4129569;28;20070;-81
2023/04/14 00:56:17;;;;;;;14.93;2.40;;;8.30;99.90;;;7.40;100.00;100446.41;4124174;28;20490;-81
2023/04/14 00:58:18;;;;;;;9.35;3.00;;;8.30;99.90;;;7.40;100.00;100436.75;4134686;28;20030;-81
2023/04/14 01:00:19;;;;;;;11.27;3.75;;;8.30;99.90;;;7.38;100.00;100436.03;4118773;28;20054;-80
2023/04/14 01:02:20;;;;;;;13.52;3.08;;;8.20;99.90;;;7.39;100.00;100423.75;4134698;28;20023;-81
2023/04/14 01:04:22;;;;;;;11.02;2.25;;;8.30;99.90;;;7.41;100.00;100417.38;4118696;28;20085;-80
2023/04/14 01:06:22;;;;;;;13.35;2.70;;;8.30;99.90;;;7.42;100.00;100412.97;4135947;28;20030;-81
2023/04/14 01:08:24;;;;;;;10.10;2.05;;;8.30;99.90;;;7.41;100.00;100401.63;4134762;28;20497;-80
2023/04/14 01:10:33;;;;;;;6.65;2.28;;;8.30;99.90;;;7.44;100.00;100395.28;4119726;28;20038;-81
2023/04/14 01:13:05;;;;;;;13.15;2.30;;;8.30;99.90;;;7.47;100.00;100393.19;4124465;28;20465;-80
2023/04/14 01:15:42;;;;;;;17.58;3.10;;;8.30;99.90;;;7.47;100.00;100390.56;4133198;28;20018;-81
2023/04/14 01:17:56;;;;;;;13.25;2.15;;;8.40;99.90;;;7.48;100.00;100386.97;4134518;28;20030;-80
2023/04/14 01:20:21;;;;;;;15.95;2.92;;;8.40;99.90;;;7.51;100.00;100381.44;4137452;28;20104;-80
2023/04/14 01:22:25;;;;;;;13.60;3.47;;;8.40;99.90;;;7.54;100.00;100380.31;4124327;28;20037;-80
2023/04/14 01:25:04;;;;;;;12.93;2.38;;;8.40;99.90;;;7.55;100.00;100376.75;4128688;28;20061;-81
2023/04/14 01:27:55;;;;;;;10.25;2.17;;;8.40;99.90;;;7.51;100.00;100365.69;4135902;28;20054;-80
2023/04/14 01:30:25;;;;;;;8.95;1.80;;;8.40;99.90;;;7.52;100.00;100363.91;4120355;28;20553;-81
2023/04/14 01:32:33;;;;;;;9.93;2.17;;;8.40;99.90;;;7.52;100.00;100349.00;4119855;28;20031;-80
2023/04/14 01:34:53;;;;;;;12.68;2.53;;;8.40;99.90;;;7.53;100.00;100340.13;4119802;28;20090;-81
2023/04/14 01:37:01;;;;;;;9.43;2.50;;;8.40;99.90;;;7.51;100.00;100338.63;4134740;28;20030;-81
2023/04/14 01:39:07;;;;;;;17.50;3.15;;;8.40;99.90;;;7.54;100.00;100327.84;4134346;28;20030;-80
2023/04/14 01:41:12;;;;;;;18.58;2.78;;;8.40;99.90;;;7.56;100.00;100331.13;4120488;28;20039;-81
2023/04/14 01:43:15;;;;;;;10.57;2.38;;;8.40;99.90;;;7.56;100.00;100328.50;4115507;28;20482;-81
2023/04/14 01:45:23;;;;;;;12.88;1.88;;;8.40;99.90;;;7.57;100.00;100328.38;4126805;28;20121;-81
2023/04/14 01:47:25;;;;;;;9.98;2.17;;;8.50;99.90;;;7.53;100.00;100320.91;4150292;28;20053;-79
2023/04/14 01:49:28;;;;;;;9.38;3.15;;;8.40;99.90;;;7.58;100.00;100316.91;4139313;28;20038;-81
2023/04/14 01:51:32;;;;;;;16.83;3.50;;;8.50;99.90;;;7.55;100.00;100305.88;4134348;28;20089;-80
2023/04/14 01:53:38;;;;;;;16.80;2.80;;;8.50;99.90;;;7.61;100.00;100308.75;4150310;28;20040;-82
2023/04/14 01:55:42;;;;;;;8.00;2.15;;;8.50;99.90;;;7.62;100.00;100312.16;4134440;28;20022;-80
2023/04/14 01:57:47;;;;;;;13.88;3.00;;;8.50;99.90;;;7.62;100.00;100313.00;4122683;28;20034;-80
2023/04/14 01:59:49;;;;;;;;;;;8.50;99.90;;;7.58;100.00;100316.91;4134792;28;20039;-80
2023/04/14 02:01:51;;;;;;;15.90;3.40;;;8.50;99.90;;;7.65;100.00;100315.31;4135277;28;19945;-80
2023/04/14 02:03:52;;;;;;;15.75;1.85;;;8.50;99.90;;;7.64;100.00;100297.13;4134045;28;20037;-81
2023/04/14 02:05:54;;;;;;;15.80;3.10;;;8.50;99.90;;;7.67;100.00;100305.53;4125787;28;20490;-80
2023/04/14 02:07:58;;;;;;;14.77;2.97;;;8.50;99.90;;;7.63;100.00;100290.19;4138501;28;20022;-80
2023/04/14 02:10:01;;;;;;;16.92;2.75;;;8.60;99.90;;;7.65;100.00;100286.44;4136924;28;20026;-81
2023/04/14 02:12:04;;;;;;;17.20;3.03;;;8.60;99.90;;;7.63;100.00;100284.94;4120760;28;20511;-82
2023/04/14 02:14:06;;;;;;;15.20;3.20;;;8.60;99.90;;;7.66;100.00;100269.75;4125997;28;20132;-81
2023/04/14 02:16:09;;;;;;;12.07;2.53;;;8.60;99.90;;;7.69;100.00;100271.25;4113169;28;20115;-82
2023/04/14 02:18:11;;;;;;;14.60;3.00;;;8.60;99.90;;;7.70;100.00;100275.53;4137036;28;20034;-81
2023/04/14 02:20:13;;;;;;;18.05;4.47;;;8.60;99.90;;;7.69;100.00;100269.44;4119546;28;20039;-82
2023/04/14 02:22:14;;;;;;;13.25;2.33;;;8.60;99.90;;;7.71;100.00;100256.97;4127405;28;20022;-80
2023/04/14 02:24:16;;;;;;;13.93;2.40;;;8.60;99.90;;;7.84;100.00;100250.53;4136774;28;20023;-81
2023/04/14 02:26:22;;;;;;;14.18;2.65;;;8.60;99.90;;;7.73;100.00;100239.31;4134072;28;20401;-81
2023/04/14 02:28:31;;;;;;;12.48;1.80;;;8.60;99.90;;;7.72;100.00;100236.81;4136849;28;20054;-82
2023/04/14 02:30:37;;;;;;;13.05;2.58;;;8.60;99.90;;;7.71;100.00;100235.97;4129860;28;20470;-80
2023/04/14 02:32:44;;;;;;;15.18;2.75;;;8.60;99.90;;;7.71;100.00;100229.91;4131382;28;20483;-80
2023/04/14 02:35:18;;;;;;;15.45;2.80;;;8.60;99.90;;;7.77;100.00;100216.16;4135358;28;20023;-82
2023/04/14 02:37:28;;;;;;;12.48;2.42;;;8.60;99.90;;;7.74;100.00;100216.47;4135853;28;20042;-81
2023/04/14 02:39:48;;;;;;;13.52;2.38;;;8.60;99.90;;;7.73;100.00;100207.78;4136417;28;20027;-80
2023/04/14 02:42:01;;;;;;;17.05;3.13;;;8.60;99.90;;;7.70;100.00;100196.78;4137881;28;20116;-82
2023/04/14 02:44:10;;;;;;;14.52;2.58;;;8.60;99.90;;;7.75;100.00;100194.50;4125708;28;20042;-81
2023/04/14 02:46:15;;;;;;;14.43;2.88;;;8.60;99.90;;;7.72;100.00;100192.19;4121678;28;20035;-80
2023/04/14 02:48:20;;;;;;;8.20;1.55;;;8.60;99.90;;;7.72;100.00;100185.13;4126230;28;20123;-81
2023/04/14 02:50:21;;;;;;;13.80;2.78;;;8.60;99.90;;;7.70;100.00;100163.47;4128205;28;20123;-81
2023/04/14 02:52:24;;;;;;;13.73;2.20;;;8.60;99.90;;;7.72;100.00;100160.69;4136446;28;20030;-81
2023/04/14 02:54:26;;;;;;;14.98;2.00;;;8.60;99.90;;;7.72;100.00;100169.38;4120075;28;20037;-81
2023/04/14 02:56:27;;;;;;;17.98;2.63;;;8.60;99.90;;;7.73;100.00;100176.28;4127908;28;20066;-81
2023/04/14 02:58:29;;;;;;;13.27;1.90;;;8.60;99.90;;;7.77;100.00;100168.91;4137618;28;20030;-81
2023/04/14 03:00:31;;;;;;;11.68;2.15;;;8.60;99.90;;;7.72;100.00;100158.88;4136306;28;20105;-81
2023/04/14 03:02:33;;;;;;;11.25;3.17;;;8.60;99.90;;;7.82;100.00;100160.59;4136555;28;20536;-82
2023/04/14 03:04:37;;;;;;;15.02;2.30;;;8.70;99.90;;;7.79;100.00;100154.66;4120444;28;20053;-81
2023/04/14 03:06:39;;;;;;;12.93;2.50;;;8.70;99.90;;;7.82;100.00;100158.81;4120323;28;20027;-82
2023/04/14 03:08:42;;;;;;;12.57;2.80;;;8.70;99.90;;;7.85;100.00;100137.50;4123924;28;20096;-82
2023/04/14 03:10:46;;;;;;;6.38;1.63;;;8.70;99.90;;;7.89;100.00;100138.81;4136394;28;20082;-83
2023/04/14 03:12:49;;;;;;;11.88;2.05;;;8.70;99.90;;;7.91;100.00;100126.38;4137442;28;20034;-82
2023/04/14 03:14:51;;;;;;;12.70;1.90;;;8.70;99.90;;;7.91;100.00;100112.41;4136279;28;20034;-81
2023/04/14 03:16:53;;;;;;;17.58;2.55;;;8.70;99.90;;;7.97;100.00;100115.25;4133908;28;20034;-81
2023/04/14 03:18:55;;;;;;;13.35;2.38;;;8.80;99.90;;;7.89;100.00;100109.09;4132799;28;20035;-81
2023/04/14 03:20:59;;;;;;;6.05;2.10;;;8.80;99.90;;;7.89;100.00;100096.81;4127850;28;20105;-81
2023/04/14 03:23:05;;;;;;;15.38;2.90;;;8.80;99.90;;;7.94;100.00;100093.72;4115693;28;20121;-81
2023/04/14 03:25:06;;;;;;;7.53;1.70;;;8.80;99.90;;;7.96;100.00;100097.00;4135668;28;20023;-80
2023/04/14 03:27:29;;;;;;;10.15;1.83;;;8.80;99.90;;;7.95;100.00;100090.09;4137482;28;20030;-81
2023/04/14 03:29:36;;;;;;;13.25;1.85;;;8.80;99.90;;;7.96;100.00;100078.63;4136039;28;20018;-81
2023/04/14 03:31:38;;;;;;;13.18;2.53;;;8.80;99.90;;;8.01;100.00;100073.72;4120540;28;20042;-82
2023/04/14 03:33:42;;;;;;;9.20;1.90;;;8.80;99.90;;;8.06;100.00;100067.06;4125493;28;20371;-81
2023/04/14 03:35:45;;;;;;;19.90;2.40;;;8.90;99.90;;;8.00;100.00;100065.03;4129251;28;20038;-81
2023/04/14 03:37:49;;;;;;;9.98;1.90;;;8.90;99.90;;;8.01;100.00;100050.91;4135860;28;20099;-82
2023/04/14 03:39:52;;;;;;;13.70;2.58;;;8.90;99.90;;;8.04;100.00;100053.22;4135606;28;20034;-81
2023/04/14 03:41:55;;;;;;;14.52;2.20;;;8.90;99.90;;;8.07;100.00;100054.72;4135629;28;20038;-81
2023/04/14 03:43:57;;;;;;;14.43;2.20;;;9.00;99.90;;;8.07;100.00;100046.84;4125025;28;20119;-81
2023/04/14 03:45:58;;;;;;;6.38;1.73;;;8.90;99.90;;;8.11;100.00;100053.44;4133314;28;20023;-81
2023/04/14 03:48:03;;;;;;;7.35;1.50;;;8.90;99.90;;;8.09;100.00;100034.38;4124751;28;20045;-81
2023/04/14 03:50:08;;;;;;;10.80;1.70;;;8.90;99.90;;;8.11;100.00;100040.31;4135567;28;20018;-81
2023/04/14 03:52:11;;;;;;;7.95;1.58;;;9.00;99.90;;;8.14;100.00;100032.94;4151536;28;20036;-82
2023/04/14 03:54:15;;;;;;;18.92;2.92;;;9.00;99.90;;;8.09;100.00;100026.50;4120602;28;20023;-80
2023/04/14 03:56:18;;;;;;;14.65;2.70;;;9.00;99.90;;;8.19;100.00;100019.31;4120820;28;20513;-80
2023/04/14 03:58:20;;;;;;;12.73;2.50;;;9.00;99.90;;;8.11;100.00;100017.50;4120827;28;20522;-82
2023/04/14 04:00:24;;;;;;;12.07;1.60;;;9.00;99.90;;;8.14;100.00;100008.47;4131485;28;20069;-82
2023/04/14 04:02:28;;;;;;;8.65;2.03;;;9.00;99.90;;;8.13;100.00;100004.19;4118781;28;20113;-82
2023/04/14 04:04:30;;;;;;;4.83;1.30;;;9.00;99.90;;;8.15;100.00;100012.75;4135544;28;20054;-81
2023/04/14 04:06:32;;;;;;;8.85;1.63;;;9.00;99.90;;;8.14;100.00;100011.09;4125945;28;20286;-81
2023/04/14 04:08:36;;;;;;;10.82;1.70;;;9.00;99.90;;;8.12;100.00;99999.94;4135179;28;20034;-82
2023/04/14 04:10:38;;;;;;;10.55;1.50;;;9.00;99.90;;;8.15;100.00;99991.72;4122572;28;20030;-82
2023/04/14 04:12:43;;;;;;;5.25;1.20;;;9.00;99.90;;;8.16;100.00;100001.25;4125967;28;20026;-81
2023/04/14 04:14:44;;;;;;;5.60;1.58;;;9.00;99.90;;;8.14;100.00;99987.44;4135313;28;20084;-81
2023/04/14 04:16:48;;;;;;;6.53;1.40;;;9.00;99.90;;;8.14;100.00;99979.56;4121511;28;20462;-81
2023/04/14 04:18:50;;;;;;;5.50;1.15;;;9.00;99.90;;;8.16;100.00;99973.16;4123756;28;20118;-81
2023/04/14 04:20:52;;;;;;;6.60;1.42;;;9.00;99.90;;;8.19;100.00;99977.28;4126916;28;20030;-81
2023/04/14 04:22:55;;;;;;;7.50;1.25;;;9.00;99.90;;;8.21;100.00;99970.09;4135260;28;20026;-82
2023/04/14 04:24:57;;;;;;;9.27;2.05;;;9.00;99.90;;;8.17;100.00;99964.31;4133457;28;20070;-81
2023/04/14 04:27:00;;;;;;;7.53;1.05;;;9.10;99.90;;;8.23;100.00;99966.31;4135206;28;20122;-82
2023/04/14 04:29:03;;;;;;;6.10;1.30;;;9.00;99.90;;;8.24;100.00;99964.50;4127814;28;20034;-81
2023/04/14 04:31:05;;;;;;;5.55;1.38;;;9.10;99.90;;;8.23;100.00;99957.59;4136301;28;20030;-81
2023/04/14 04:33:09;;;;;;;5.03;1.20;;;9.10;99.90;;;8.20;100.00;99947.41;4134975;28;20034;-82
2023/04/14 04:35:11;;;;;;;7.13;1.00;;;9.10;99.90;;;8.25;100.00;99951.19;4124384;28;20030;-82
2023/04/14 04:37:12;;;;;;;6.00;0.93;;;9.10;99.90;;;8.25;100.00;99940.69;4126648;28;20037;-81
2023/04/14 04:39:13;;;;;;;3.97;0.85;;;9.10;99.90;;;8.23;100.00;99937.41;4130479;28;20038;-82
2023/04/14 04:41:29;;;;;;;5.55;0.85;;;9.10;99.90;;;8.24;100.00;99927.72;4134882;28;20030;-82
2023/04/14 04:43:29;;;;;;;3.78;0.77;;;9.10;99.90;;;8.21;100.00;99913.06;4134364;28;20089;-82
2023/04/14 04:45:51;;;;;;;2.72;0.63;;;9.10;99.90;;;8.23;100.00;99911.13;4125786;28;20019;-82
2023/04/14 04:47:51;;;;;;;2.03;0.70;;;9.10;99.90;;;8.22;100.00;99903.41;4122057;28;20058;-81
2023/04/14 04:49:52;;;;;;;2.22;0.50;;;9.10;99.90;;;8.22;100.00;99891.09;4125048;28;20073;-82
2023/04/14 04:51:55;;;;;;;1.67;0.77;;;9.10;99.90;;;8.29;100.00;99896.56;4134560;28;20080;-81
2023/04/14 04:53:56;;;;;;;2.85;0.73;;;9.10;99.90;;;8.24;100.00;99885.69;4134626;28;20022;-82
2023/04/14 04:55:57;;;;;;;3.83;1.00;;;9.10;99.90;;;8.36;100.00;99886.22;4136190;28;20042;-81
2023/04/14 04:57:57;;;;;;;2.90;0.50;;;9.10;99.90;;;8.30;100.00;99869.31;4136071;28;20027;-82
2023/04/14 04:59:58;;;;;;;3.05;0.65;;;9.10;99.90;;;8.29;100.00;99879.00;4134859;28;20026;-81
2023/04/14 05:01:59;;;;;;;2.10;0.60;;;9.10;99.90;;;8.32;100.00;99860.28;4132855;28;20033;-81
2023/04/14 05:04:00;;;;;;;2.95;0.40;;;9.10;99.90;;;8.20;100.00;99837.06;4150852;28;20124;-81
2023/04/14 05:06:02;;;;;;;1.23;0.40;;;9.10;99.90;;;8.28;100.00;99851.06;4129882;28;20077;-80
2023/04/14 05:08:03;;;;;;;2.88;0.50;;;9.10;99.90;;;8.33;100.00;99847.97;4128181;28;20030;-81
2023/04/14 05:10:04;;;;;;;1.10;0.47;;;9.20;99.90;;;8.34;100.00;99857.47;4131199;28;20026;-82
2023/04/14 05:12:05;;;;;;;2.30;0.60;;;9.20;99.90;;;8.34;100.00;99855.66;4134821;28;20045;-81
2023/04/14 05:14:06;;;;;;;2.67;0.50;;;9.20;99.90;;;8.33;100.00;99834.81;4134895;28;20513;-81
2023/04/14 05:16:10;;;;;;;1.48;0.50;;;9.20;99.90;;;8.34;100.00;99825.94;4127733;28;20081;-82
2023/04/14 05:18:11;;;;;;;2.10;0.50;;;9.20;99.90;;;8.32;100.00;99833.16;4118431;28;20034;-82
2023/04/14 05:20:12;;;;;;;1.95;0.40;;;9.20;99.90;;;8.44;100.00;99845.00;4134661;28;20039;-80
2023/04/14 05:22:13;;;;;;;2.47;0.70;;;9.30;99.90;;;8.49;100.00;99833.97;4124796;28;20489;-82
2023/04/14 05:24:14;;;;;;;2.40;0.50;;;9.30;99.90;;;8.49;100.00;99831.34;4128837;28;20398;-83
2023/04/14 05:26:15;;;;;;;1.85;0.80;;;9.30;99.90;;;8.45;100.00;99830.06;4135588;28;20058;-81
2023/04/14 05:28:16;;;;;;;2.10;0.80;;;9.30;99.90;;;8.57;100.00;99829.53;4134228;28;20449;-83
2023/04/14 05:30:17;;;;;;;1.35;0.90;;;9.40;99.90;;;8.60;100.00;99837.09;4133661;28;20031;-82
2023/04/14 05:32:19;;;;;;;3.75;1.00;;;9.40;99.90;;;8.63;100.00;99825.47;4134664;28;20027;-82
2023/04/14 05:34:20;;;;;;;2.90;1.10;;;9.40;99.90;;;8.65;100.00;99821.66;4131834;28;20022;-82
2023/04/14 05:36:21;;;;;;;1.80;1.10;;;9.50;99.90;;;8.72;100.00;99822.63;4134217;28;20030;-82
2023/04/14 05:38:22;;;;;;;2.45;1.08;;;9.50;99.90;;;8.75;100.00;99832.81;4124736;28;20065;-82
2023/04/14 05:40:23;;;;;;;2.58;1.00;;;9.60;99.90;;;8.84;100.00;99831.81;4137208;28;20030;-82
2023/04/14 05:42:24;;;;;;;1.48;1.00;;;9.60;99.90;;;8.85;100.00;99822.13;4132582;28;20422;-81
2023/04/14 05:44:25;;;;;;;3.05;1.30;;;9.60;99.90;;;8.90;100.00;99820.63;4123905;28;20125;-82
2023/04/14 05:46:26;;;;;;;1.40;0.82;;;9.70;99.90;;;9.00;100.00;99822.25;4122790;28;20027;-81
2023/04/14 05:48:29;;;;;;;2.22;0.95;;;9.80;99.90;;;9.04;100.00;99818.31;4121438;28;20027;-82
2023/04/14 05:50:32;;;;;;;2.83;1.13;;;9.80;99.90;;;9.10;100.00;99815.00;4122517;28;20077;-82
2023/04/14 05:52:33;;;;;;;2.17;0.90;;;9.90;99.90;;;9.16;100.00;99815.16;4122407;28;20497;-83
2023/04/14 05:54:34;;;;;;;4.88;1.30;;;9.90;99.90;;;9.25;100.00;99808.03;4122399;28;20034;-84
2023/04/14 05:56:35;;;;;;;3.13;0.70;;;10.00;99.90;;;9.31;100.00;99815.25;4121500;28;20027;-82
2023/04/14 05:58:36;;;;;;;4.97;1.30;;;10.10;99.90;;;9.34;100.00;99799.13;4122622;28;20030;-83
2023/04/14 06:00:37;;;;;;;4.15;0.85;;;10.10;99.90;;;9.43;100.00;99820.00;4135796;28;20027;-81
2023/04/14 06:02:39;;;;;;;6.22;1.40;;;10.20;99.90;;;9.48;100.00;99819.47;4127095;28;20026;-83
2023/04/14 06:04:40;;;;;;;4.75;1.00;;;10.30;99.90;;;9.54;100.00;99834.56;4129340;28;20026;-81
2023/04/14 06:06:41;;;;;;;8.65;2.45;;;10.30;99.90;;;9.57;100.00;99834.22;4132472;28;20022;-83
2023/04/14 06:08:42;;;;;;;8.38;1.67;;;10.40;99.90;;;9.65;100.00;99843.88;4136916;28;20038;-82
2023/04/14 06:10:43;;;;;;;8.48;1.33;;;10.40;99.90;;;9.74;100.00;99841.03;4125722;28;20030;-80
2023/04/14 06:12:44;;;;;;;6.72;1.67;;;10.50;99.90;;;9.79;100.00;99835.28;4138529;28;20045;-81
2023/04/14 06:14:45;;;;;;;10.13;2.03;;;10.50;99.90;;;9.92;100.00;99825.81;4136877;28;20077;-81
2023/04/14 06:16:46;;;;;;;11.23;2.13;;;10.60;99.90;;;9.95;100.00;99832.53;4136693;28;20113;-82
2023/04/14 06:18:47;;;;;;;13.05;2.72;;;10.70;99.90;;;10.01;100.00;99826.56;4138344;28;20038;-82
2023/04/14 06:20:48;;;;;;;16.77;2.67;;;10.80;99.90;;;10.06;100.00;99821.63;4138102;28;20490;-82
2023/04/14 06:22:48;;;;;;;21.58;3.67;;;10.80;99.90;;;10.13;100.00;99826.97;4136830;28;20038;-82
2023/04/14 06:24:49;;;;;;;15.98;3.90;;;10.90;99.90;;;10.22;100.00;99837.34;4136667;28;20458;-82
2023/04/14 06:26:51;;;;;;;21.67;3.28;;;10.90;99.90;;;10.23;100.00;99835.53;4138193;28;20018;-81
2023/04/14 06:28:52;;;;;;;18.55;3.78;;;11.00;99.90;;;10.33;100.00;99841.38;4130628;28;20402;-83
2023/04/14 06:30:53;;;;;;;28.20;3.67;;;11.10;99.90;;;10.31;100.00;99831.00;4122072;28;20398;-82
2023/04/14 06:32:54;;;;;;;17.23;3.47;;;11.10;99.90;;;10.40;100.00;99831.75;4134508;28;20050;-82
2023/04/14 06:34:56;;;;;;;32.70;5.47;;;11.20;99.90;;;10.41;100.00;99834.22;4124345;28;20478;-82
2023/04/14 06:36:57;;;;;;;21.65;4.07;;;11.20;99.90;;;10.50;100.00;99827.06;4138112;28;20113;-81
2023/04/14 06:38:59;;;;;;;13.18;3.20;;;11.30;99.90;;;10.55;100.00;99824.72;4137786;28;20038;-83
2023/04/14 06:41:00;;;;;;;15.18;3.67;;;11.40;99.90;;;10.63;100.00;99827.31;4136683;28;20426;-83
2023/04/14 06:43:01;;;;;;;21.95;4.90;;;11.40;99.90;;;10.71;100.00;99832.50;4135024;28;20169;-82
2023/04/14 06:45:03;;;;;;;21.52;4.43;;;11.50;99.90;;;10.75;100.00;99817.13;4121654;28;20504;-83
2023/04/14 06:47:03;;;;;;;26.75;4.35;;;11.50;99.90;;;10.80;100.00;99807.69;4129611;28;20518;-83
2023/04/14 06:49:04;;;;;;;22.13;5.38;;;11.60;99.90;;;10.90;100.00;99815.34;4132816;28;20029;-83
2023/04/14 06:51:09;;;;;;;26.50;5.95;;;11.60;99.90;;;10.95;100.00;99829.63;4135871;28;20089;-83
2023/04/14 06:53:10;;;;;;;20.63;4.95;;;11.70;99.90;;;11.07;100.00;99822.91;4127570;28;20030;-83
2023/04/14 06:55:11;;;;;;;26.35;5.53;;;11.80;99.90;;;11.23;100.00;99815.81;4136411;28;20030;-84
2023/04/14 06:57:11;;;;;;;35.53;7.15;;;11.90;99.90;;;11.39;100.00;99818.22;4132359;28;20084;-84
2023/04/14 06:59:12;;;;;;;29.67;6.18;;;12.00;99.90;;;11.56;100.00;99798.53;4136766;28;20026;-82
2023/04/14 07:01:13;;;;;;;28.63;4.68;;;12.20;99.90;;;11.71;100.00;99806.47;4136446;28;20018;-83
2023/04/14 07:03:14;;;;;;;23.65;4.30;;;12.30;99.90;;;11.80;100.00;99798.22;4127904;28;20034;-83
2023/04/14 07:05:16;;;;;;;27.38;5.13;;;12.40;99.90;;;11.96;100.00;99784.81;4121566;28;20015;-83
2023/04/14 07:07:17;;;;;;;26.23;6.00;;;12.60;99.90;;;12.13;100.00;99778.25;4121317;28;20022;-82
2023/04/14 07:09:18;;;;;;;30.38;6.15;;;12.80;99.90;;;12.31;100.00;99783.09;4121228;28;20030;-83
2023/04/14 07:11:19;;;;;;;24.80;5.68;;;12.90;99.90;;;12.42;100.00;99773.81;4121323;28;20490;-83
2023/04/14 07:13:20;;;;;;;35.45;5.20;;;13.00;99.90;;;12.53;100.00;99765.38;4121224;28;20034;-84
2023/04/14 07:15:20;;;;;;;30.42;7.20;;;13.10;99.90;;;12.53;100.00;99765.38;4119930;28;20035;-82
2023/04/14 07:17:21;;;;;;;28.25;5.25;;;13.20;99.90;;;12.44;100.00;99767.34;4134335;28;20081;-80
2023/04/14 07:19:23;;;;;;;30.98;5.65;;;13.20;99.90;;;12.47;100.00;99758.19;4127016;28;20081;-77
2023/04/14 07:21:24;;;;;;;28.10;6.70;;;13.20;99.90;;;12.37;100.00;99757.69;4120788;28;20399;-79
2023/04/14 07:23:25;;;;;;;31.73;6.18;;;13.20;99.90;;;12.29;100.00;99755.19;4130342;28;20026;-82
2023/04/14 07:25:26;;;;;;;32.10;5.93;;;13.20;99.90;;;12.18;100.00;99757.34;4131404;28;20787;-84
2023/04/14 07:27:27;;;;;;;36.10;6.90;;;13.00;99.90;;;12.04;100.00;99747.66;4127903;28;20130;-81
2023/04/14 07:29:28;;;;;;;33.17;6.75;;;12.90;99.90;;;11.85;100.00;99750.13;4132539;28;20030;-82
2023/04/14 07:31:32;;;;;;;38.35;6.32;;;12.80;99.90;;;11.87;100.00;99754.22;4134135;28;20077;-82
2023/04/14 07:33:34;;;;;;;32.92;6.57;;;12.70;99.90;;;11.93;100.00;99752.63;4134621;28;20584;-81
2023/04/14 07:35:35;;;;;;;39.03;8.07;;;12.80;99.90;;;12.02;100.00;99757.63;4127987;28;20026;-81
2023/04/14 07:37:36;;;;;;;29.35;5.43;;;12.80;99.90;;;12.06;100.00;99747.50;4134771;28;20060;-80
2023/04/14 07:39:37;;;;;;;30.88;6.07;;;12.90;99.90;;;12.02;100.00;99747.03;4134748;28;20054;-80
2023/04/14 07:41:38;;;;;;;32.75;7.38;;;12.80;99.90;;;11.86;100.00;99738.53;4136073;28;20085;-87
2023/04/14 07:43:38;;;;;;;30.08;6.28;;;12.70;99.90;;;11.74;100.00;99743.50;4127282;28;20046;-84
2023/04/14 07:45:39;;;;;;;30.20;5.95;;;12.60;99.90;;;11.62;100.00;99739.69;4119978;28;20030;-84
2023/04/14 07:47:40;;;;;;;31.45;6.20;;;12.50;99.90;;;11.56;100.00;99751.00;4119981;28;20491;-83
2023/04/14 07:49:41;;;;;;;29.30;6.00;;;12.50;99.90;;;11.56;100.00;99756.28;4120372;28;20019;-82
2023/04/14 07:51:42;;;;;;;34.17;6.70;;;12.40;99.90;;;11.53;100.00;99751.34;4133151;28;20041;-82
2023/04/14 07:53:43;;;;;;;32.53;6.70;;;12.40;99.90;;;11.48;100.00;99741.38;4128984;28;20030;-81
2023/04/14 07:55:44;;;;;;;29.35;7.43;;;12.40;99.90;;;11.54;100.00;99753.00;4134682;28;20518;-80
2023/04/14 07:57:45;;;;;;;33.35;8.02;;;12.40;99.90;;;11.57;100.00;99742.06;4134910;28;20026;-80
2023/04/14 07:59:46;;;;;;;36.90;7.30;;;12.40;99.90;;;11.70;100.00;99744.06;4134888;28;20038;-80
2023/04/14 08:01:47;;;;;;;38.55;8.65;;;12.50;99.90;;;11.88;100.00;99744.47;4135809;28;20033;-79
2023/04/14 08:03:48;;;;;;;38.30;9.70;;;12.60;99.90;;;12.02;100.00;99746.22;4134260;28;20030;-79
2023/04/14 08:05:49;;;;;;;36.55;7.30;;;12.70;99.90;;;12.23;100.00;99758.59;4136754;28;20023;-79
2023/04/14 08:07:50;;;;;;;30.15;6.80;;;12.90;99.90;;;12.42;100.00;99742.91;4136623;28;20022;-78
2023/04/14 08:09:51;;;;;;;31.25;6.43;;;13.10;99.90;;;12.65;100.00;99750.59;4135077;28;20062;-79
2023/04/14 08:11:52;;;;;;;35.67;7.00;;;13.30;99.90;;;12.76;100.00;99736.81;4136391;28;20057;-79
2023/04/14 08:13:53;;;;;;;32.88;7.22;;;13.50;99.90;;;12.72;100.00;99740.88;4135303;28;20482;-79
2023/04/14 08:15:54;;;;;;;35.85;6.35;;;13.60;99.90;;;12.75;100.00;99743.94;4135333;28;20100;-80
2023/04/14 08:17:55;;;;;;;20.67;5.18;;;13.60;99.90;;;12.67;100.00;99730.03;4151609;28;20033;-79
2023/04/14 08:19:57;;;;;;;29.10;6.10;;;13.60;99.90;;;12.69;100.00;99728.84;4136464;28;20469;-80
2023/04/14 08:21:58;;;;;;;27.80;5.20;;;13.60;99.90;;;12.71;100.00;99726.00;4136429;28;20057;-79
2023/04/14 08:23:59;;;;;;;25.35;6.13;;;13.60;99.90;;;12.80;100.00;99735.44;4129818;28;20029;-78
2023/04/14 08:26:00;;;;;;;27.38;6.35;;;13.60;99.90;;;12.81;100.00;99731.78;4128591;28;20030;-79
2023/04/14 08:28:00;;;;;;;23.13;4.70;;;13.60;99.90;;;12.84;100.00;99744.63;4132985;28;20030;-80
2023/04/14 08:30:01;;;;;;;28.75;6.15;;;13.60;99.90;;;12.56;100.00;99744.63;4136143;28;20030;-80
2023/04/14 08:32:03;;;;;;;29.58;6.75;;;13.40;99.90;;;12.41;100.00;99740.44;4135303;28;20490;-79
2023/04/14 08:34:04;;;;;;;25.80;6.53;;;13.20;99.90;;;12.12;100.00;99736.16;4144426;28;20513;-80
2023/04/14 08:36:05;;;;;;;26.90;4.90;;;13.10;99.90;;;12.27;100.00;99738.72;4134736;28;20030;-79